sensor_id;sensor_type;location;lat;lon;timestamp;P1;durP1;ratioP1;P2;durP2;ratioP2
51578;SDS011;47998;53.242;6.386;2024-01-27T00:00:08;44.67;;;5.63;;
51578;SDS011;47998;53.242;6.386;2024-01-27T00:02:35;31.45;;;3.00;;
51578;SDS011;47998;53.242;6.386;2024-01-27T00:05:01;28.40;;;4.05;;
51578;SDS011;47998;53.242;6.386;2024-01-27T00:07:27;30.40;;;4.40;;
51578;SDS011;47998;53.242;6.386;2024-01-27T00:09:53;33.72;;;5.22;;
51578;SDS011;47998;53.242;6.386;2024-01-27T00:12:20;27.38;;;3.95;;
51578;SDS011;47998;53.242;6.386;2024-01-27T00:14:46;22.52;;;2.92;;
51578;SDS011;47998;53.242;6.386;2024-01-27T00:17:12;26.95;;;3.97;;
51578;SDS011;47998;53.242;6.386;2024-01-27T00:19:37;34.33;;;4.57;;
51578;SDS011;47998;53.242;6.386;2024-01-27T00:22:03;36.08;;;5.55;;
51578;SDS011;47998;53.242;6.386;2024-01-27T00:24:29;23.50;;;3.30;;
51578;SDS011;47998;53.242;6.386;2024-01-27T00:26:55;25.15;;;3.45;;
51578;SDS011;47998;53.242;6.386;2024-01-27T00:29:20;24.48;;;4.90;;
51578;SDS011;47998;53.242;6.386;2024-01-27T00:31:46;28.17;;;4.53;;
51578;SDS011;47998;53.242;6.386;2024-01-27T00:34:12;24.42;;;4.32;;
51578;SDS011;47998;53.242;6.386;2024-01-27T00:36:37;35.20;;;4.82;;
51578;SDS011;47998;53.242;6.386;2024-01-27T00:39:03;25.83;;;3.58;;
51578;SDS011;47998;53.242;6.386;2024-01-27T00:41:29;21.20;;;3.22;;
51578;SDS011;47998;53.242;6.386;2024-01-27T00:43:55;19.05;;;3.72;;
51578;SDS011;47998;53.242;6.386;2024-01-27T00:46:21;28.17;;;4.43;;
51578;SDS011;47998;53.242;6.386;2024-01-27T00:48:47;36.55;;;5.32;;
51578;SDS011;47998;53.242;6.386;2024-01-27T00:51:12;33.33;;;5.10;;
51578;SDS011;47998;53.242;6.386;2024-01-27T00:53:38;28.42;;;4.22;;
51578;SDS011;47998;53.242;6.386;2024-01-27T00:56:05;30.88;;;5.68;;
51578;SDS011;47998;53.242;6.386;2024-01-27T00:58:30;28.08;;;3.85;;
51578;SDS011;47998;53.242;6.386;2024-01-27T01:00:56;45.85;;;6.75;;
51578;SDS011;47998;53.242;6.386;2024-01-27T01:03:23;29.73;;;4.88;;
51578;SDS011;47998;53.242;6.386;2024-01-27T01:05:49;25.67;;;3.13;;
51578;SDS011;47998;53.242;6.386;2024-01-27T01:08:15;31.17;;;7.35;;
51578;SDS011;47998;53.242;6.386;2024-01-27T01:10:41;23.08;;;3.95;;
51578;SDS011;47998;53.242;6.386;2024-01-27T01:13:06;26.17;;;3.78;;
51578;SDS011;47998;53.242;6.386;2024-01-27T01:15:32;36.13;;;4.75;;
51578;SDS011;47998;53.242;6.386;2024-01-27T01:17:58;23.75;;;4.10;;
51578;SDS011;47998;53.242;6.386;2024-01-27T01:20:23;32.83;;;6.20;;
51578;SDS011;47998;53.242;6.386;2024-01-27T01:22:51;38.30;;;3.40;;
51578;SDS011;47998;53.242;6.386;2024-01-27T01:25:17;23.40;;;3.65;;
51578;SDS011;47998;53.242;6.386;2024-01-27T01:27:44;32.40;;;4.72;;
51578;SDS011;47998;53.242;6.386;2024-01-27T01:30:11;37.72;;;3.67;;
51578;SDS011;47998;53.242;6.386;2024-01-27T01:32:37;36.17;;;4.88;;
51578;SDS011;47998;53.242;6.386;2024-01-27T01:35:02;27.95;;;3.72;;
51578;SDS011;47998;53.242;6.386;2024-01-27T01:37:29;28.13;;;4.03;;
51578;SDS011;47998;53.242;6.386;2024-01-27T01:39:54;18.65;;;3.80;;
51578;SDS011;47998;53.242;6.386;2024-01-27T01:42:20;24.23;;;3.50;;
51578;SDS011;47998;53.242;6.386;2024-01-27T01:44:49;27.90;;;3.80;;
51578;SDS011;47998;53.242;6.386;2024-01-27T01:47:16;20.50;;;3.25;;
51578;SDS011;47998;53.242;6.386;2024-01-27T01:49:42;20.40;;;3.40;;
51578;SDS011;47998;53.242;6.386;2024-01-27T01:52:08;22.77;;;3.72;;
51578;SDS011;47998;53.242;6.386;2024-01-27T01:54:35;27.27;;;3.28;;
51578;SDS011;47998;53.242;6.386;2024-01-27T01:57:02;27.42;;;5.13;;
51578;SDS011;47998;53.242;6.386;2024-01-27T01:59:28;27.95;;;4.00;;
51578;SDS011;47998;53.242;6.386;2024-01-27T02:01:54;18.02;;;3.22;;
51578;SDS011;47998;53.242;6.386;2024-01-27T02:04:20;27.00;;;3.70;;
51578;SDS011;47998;53.242;6.386;2024-01-27T02:06:45;23.55;;;3.88;;
51578;SDS011;47998;53.242;6.386;2024-01-27T02:09:12;24.27;;;3.92;;
51578;SDS011;47998;53.242;6.386;2024-01-27T02:11:38;25.55;;;4.90;;
51578;SDS011;47998;53.242;6.386;2024-01-27T02:14:03;26.95;;;3.47;;
51578;SDS011;47998;53.242;6.386;2024-01-27T02:16:29;29.83;;;3.50;;
51578;SDS011;47998;53.242;6.386;2024-01-27T02:18:55;21.50;;;4.20;;
51578;SDS011;47998;53.242;6.386;2024-01-27T02:21:21;25.35;;;3.88;;
51578;SDS011;47998;53.242;6.386;2024-01-27T02:23:46;15.27;;;2.38;;
51578;SDS011;47998;53.242;6.386;2024-01-27T02:26:12;27.20;;;3.95;;
51578;SDS011;47998;53.242;6.386;2024-01-27T02:28:38;22.50;;;2.80;;
51578;SDS011;47998;53.242;6.386;2024-01-27T02:31:03;16.30;;;2.92;;
51578;SDS011;47998;53.242;6.386;2024-01-27T02:33:29;21.95;;;4.25;;
51578;SDS011;47998;53.242;6.386;2024-01-27T02:35:55;27.35;;;2.85;;
51578;SDS011;47998;53.242;6.386;2024-01-27T02:38:21;18.63;;;2.88;;
51578;SDS011;47998;53.242;6.386;2024-01-27T02:40:46;17.90;;;3.03;;
51578;SDS011;47998;53.242;6.386;2024-01-27T02:43:12;13.80;;;2.80;;
51578;SDS011;47998;53.242;6.386;2024-01-27T02:45:38;26.70;;;4.07;;
51578;SDS011;47998;53.242;6.386;2024-01-27T02:48:04;28.65;;;4.07;;
51578;SDS011;47998;53.242;6.386;2024-01-27T02:50:29;23.63;;;3.25;;
51578;SDS011;47998;53.242;6.386;2024-01-27T02:52:55;27.88;;;3.38;;
51578;SDS011;47998;53.242;6.386;2024-01-27T02:55:21;22.85;;;3.80;;
51578;SDS011;47998;53.242;6.386;2024-01-27T02:57:46;25.17;;;3.80;;
51578;SDS011;47998;53.242;6.386;2024-01-27T03:00:12;25.38;;;4.10;;
51578;SDS011;47998;53.242;6.386;2024-01-27T03:02:38;23.17;;;3.17;;
51578;SDS011;47998;53.242;6.386;2024-01-27T03:05:04;24.05;;;3.97;;
51578;SDS011;47998;53.242;6.386;2024-01-27T03:07:30;16.60;;;2.97;;
51578;SDS011;47998;53.242;6.386;2024-01-27T03:09:56;20.02;;;4.03;;
51578;SDS011;47998;53.242;6.386;2024-01-27T03:12:21;18.40;;;3.45;;
51578;SDS011;47998;53.242;6.386;2024-01-27T03:14:48;19.92;;;4.07;;
51578;SDS011;47998;53.242;6.386;2024-01-27T03:17:14;27.38;;;3.50;;
51578;SDS011;47998;53.242;6.386;2024-01-27T03:19:40;23.08;;;4.07;;
51578;SDS011;47998;53.242;6.386;2024-01-27T03:22:06;25.15;;;4.05;;
51578;SDS011;47998;53.242;6.386;2024-01-27T03:24:32;24.70;;;3.67;;
51578;SDS011;47998;53.242;6.386;2024-01-27T03:26:58;32.15;;;3.83;;
51578;SDS011;47998;53.242;6.386;2024-01-27T03:29:23;28.80;;;4.75;;
51578;SDS011;47998;53.242;6.386;2024-01-27T03:31:49;18.30;;;2.75;;
51578;SDS011;47998;53.242;6.386;2024-01-27T03:34:15;26.70;;;3.67;;
51578;SDS011;47998;53.242;6.386;2024-01-27T03:36:42;30.15;;;3.70;;
51578;SDS011;47998;53.242;6.386;2024-01-27T03:39:11;23.60;;;2.83;;
51578;SDS011;47998;53.242;6.386;2024-01-27T03:41:37;27.85;;;3.85;;
51578;SDS011;47998;53.242;6.386;2024-01-27T03:44:03;24.88;;;3.70;;
51578;SDS011;47998;53.242;6.386;2024-01-27T03:46:28;18.25;;;2.78;;
51578;SDS011;47998;53.242;6.386;2024-01-27T03:48:54;28.88;;;3.67;;
51578;SDS011;47998;53.242;6.386;2024-01-27T03:51:20;26.48;;;3.45;;
51578;SDS011;47998;53.242;6.386;2024-01-27T03:53:45;21.67;;;3.33;;
51578;SDS011;47998;53.242;6.386;2024-01-27T03:56:11;25.25;;;3.78;;
51578;SDS011;47998;53.242;6.386;2024-01-27T03:58:37;24.95;;;3.33;;
51578;SDS011;47998;53.242;6.386;2024-01-27T04:01:04;26.52;;;3.83;;
51578;SDS011;47998;53.242;6.386;2024-01-27T04:03:29;21.38;;;3.35;;
51578;SDS011;47998;53.242;6.386;2024-01-27T04:05:55;26.55;;;4.03;;
51578;SDS011;47998;53.242;6.386;2024-01-27T04:08:21;24.25;;;3.75;;
51578;SDS011;47998;53.242;6.386;2024-01-27T04:10:47;25.27;;;4.57;;
51578;SDS011;47998;53.242;6.386;2024-01-27T04:13:12;28.10;;;3.67;;
51578;SDS011;47998;53.242;6.386;2024-01-27T04:15:38;24.40;;;4.00;;
51578;SDS011;47998;53.242;6.386;2024-01-27T04:18:04;21.95;;;2.88;;
51578;SDS011;47998;53.242;6.386;2024-01-27T04:20:32;25.60;;;4.55;;
51578;SDS011;47998;53.242;6.386;2024-01-27T04:22:58;22.95;;;3.20;;
51578;SDS011;47998;53.242;6.386;2024-01-27T04:25:24;30.75;;;5.00;;
51578;SDS011;47998;53.242;6.386;2024-01-27T04:27:50;27.55;;;4.00;;
51578;SDS011;47998;53.242;6.386;2024-01-27T04:30:16;23.02;;;2.78;;
51578;SDS011;47998;53.242;6.386;2024-01-27T04:32:41;29.50;;;2.95;;
51578;SDS011;47998;53.242;6.386;2024-01-27T04:35:10;27.77;;;4.75;;
51578;SDS011;47998;53.242;6.386;2024-01-27T04:37:36;22.45;;;3.33;;
51578;SDS011;47998;53.242;6.386;2024-01-27T04:40:03;23.67;;;3.30;;
51578;SDS011;47998;53.242;6.386;2024-01-27T04:42:33;13.75;;;1.98;;
51578;SDS011;47998;53.242;6.386;2024-01-27T04:44:59;25.42;;;4.47;;
51578;SDS011;47998;53.242;6.386;2024-01-27T04:47:25;23.90;;;4.43;;
51578;SDS011;47998;53.242;6.386;2024-01-27T04:49:51;30.30;;;4.75;;
51578;SDS011;47998;53.242;6.386;2024-01-27T04:52:16;24.00;;;3.47;;
51578;SDS011;47998;53.242;6.386;2024-01-27T04:54:42;20.52;;;2.85;;
51578;SDS011;47998;53.242;6.386;2024-01-27T04:57:08;23.60;;;3.25;;
51578;SDS011;47998;53.242;6.386;2024-01-27T04:59:35;27.35;;;3.47;;
51578;SDS011;47998;53.242;6.386;2024-01-27T05:02:00;16.15;;;3.22;;
51578;SDS011;47998;53.242;6.386;2024-01-27T05:04:26;17.70;;;2.83;;
51578;SDS011;47998;53.242;6.386;2024-01-27T05:06:52;24.52;;;3.35;;
51578;SDS011;47998;53.242;6.386;2024-01-27T05:09:18;23.17;;;2.95;;
51578;SDS011;47998;53.242;6.386;2024-01-27T05:11:43;23.95;;;3.92;;
51578;SDS011;47998;53.242;6.386;2024-01-27T05:14:10;31.92;;;3.88;;
51578;SDS011;47998;53.242;6.386;2024-01-27T05:16:36;21.70;;;2.90;;
51578;SDS011;47998;53.242;6.386;2024-01-27T05:19:02;29.48;;;3.33;;
51578;SDS011;47998;53.242;6.386;2024-01-27T05:21:28;26.48;;;4.68;;
51578;SDS011;47998;53.242;6.386;2024-01-27T05:23:54;25.27;;;3.20;;
51578;SDS011;47998;53.242;6.386;2024-01-27T05:26:22;20.63;;;2.70;;
51578;SDS011;47998;53.242;6.386;2024-01-27T05:28:48;17.90;;;2.72;;
51578;SDS011;47998;53.242;6.386;2024-01-27T05:31:13;23.27;;;3.10;;
51578;SDS011;47998;53.242;6.386;2024-01-27T05:33:40;22.55;;;3.15;;
51578;SDS011;47998;53.242;6.386;2024-01-27T05:36:07;29.67;;;3.65;;
51578;SDS011;47998;53.242;6.386;2024-01-27T05:38:33;23.52;;;3.30;;
51578;SDS011;47998;53.242;6.386;2024-01-27T05:41:02;26.27;;;3.50;;
51578;SDS011;47998;53.242;6.386;2024-01-27T05:43:28;25.30;;;5.20;;
51578;SDS011;47998;53.242;6.386;2024-01-27T05:45:53;27.13;;;3.58;;
51578;SDS011;47998;53.242;6.386;2024-01-27T05:48:19;18.10;;;2.47;;
51578;SDS011;47998;53.242;6.386;2024-01-27T05:50:54;30.95;;;5.07;;
51578;SDS011;47998;53.242;6.386;2024-01-27T05:53:24;27.98;;;3.70;;
51578;SDS011;47998;53.242;6.386;2024-01-27T05:55:50;23.35;;;4.63;;
51578;SDS011;47998;53.242;6.386;2024-01-27T05:58:16;26.58;;;4.85;;
51578;SDS011;47998;53.242;6.386;2024-01-27T06:00:45;26.15;;;2.83;;
51578;SDS011;47998;53.242;6.386;2024-01-27T06:03:10;31.48;;;4.88;;
51578;SDS011;47998;53.242;6.386;2024-01-27T06:05:36;24.83;;;3.47;;
51578;SDS011;47998;53.242;6.386;2024-01-27T06:08:03;23.75;;;2.95;;
51578;SDS011;47998;53.242;6.386;2024-01-27T06:10:30;33.35;;;3.85;;
51578;SDS011;47998;53.242;6.386;2024-01-27T06:12:56;25.48;;;3.33;;
51578;SDS011;47998;53.242;6.386;2024-01-27T06:15:22;26.85;;;3.33;;
51578;SDS011;47998;53.242;6.386;2024-01-27T06:17:48;20.48;;;3.33;;
51578;SDS011;47998;53.242;6.386;2024-01-27T06:20:13;25.30;;;3.13;;
51578;SDS011;47998;53.242;6.386;2024-01-27T06:22:41;20.23;;;3.65;;
51578;SDS011;47998;53.242;6.386;2024-01-27T06:25:07;21.25;;;4.15;;
51578;SDS011;47998;53.242;6.386;2024-01-27T06:27:34;20.17;;;3.30;;
51578;SDS011;47998;53.242;6.386;2024-01-27T06:29:59;22.77;;;3.03;;
51578;SDS011;47998;53.242;6.386;2024-01-27T06:32:25;29.03;;;3.63;;
51578;SDS011;47998;53.242;6.386;2024-01-27T06:34:51;35.95;;;5.28;;
51578;SDS011;47998;53.242;6.386;2024-01-27T06:37:16;22.00;;;3.58;;
51578;SDS011;47998;53.242;6.386;2024-01-27T06:39:42;24.63;;;4.57;;
51578;SDS011;47998;53.242;6.386;2024-01-27T06:42:08;23.67;;;4.60;;
51578;SDS011;47998;53.242;6.386;2024-01-27T06:44:33;24.73;;;3.70;;
51578;SDS011;47998;53.242;6.386;2024-01-27T06:46:59;23.87;;;4.93;;
51578;SDS011;47998;53.242;6.386;2024-01-27T06:49:25;35.20;;;4.18;;
51578;SDS011;47998;53.242;6.386;2024-01-27T06:51:50;34.90;;;4.13;;
51578;SDS011;47998;53.242;6.386;2024-01-27T06:54:16;30.63;;;5.32;;
51578;SDS011;47998;53.242;6.386;2024-01-27T06:56:42;31.80;;;4.53;;
51578;SDS011;47998;53.242;6.386;2024-01-27T06:59:07;33.70;;;6.23;;
51578;SDS011;47998;53.242;6.386;2024-01-27T07:01:33;28.48;;;6.22;;
51578;SDS011;47998;53.242;6.386;2024-01-27T07:03:59;35.53;;;4.95;;
51578;SDS011;47998;53.242;6.386;2024-01-27T07:06:24;29.50;;;4.82;;
51578;SDS011;47998;53.242;6.386;2024-01-27T07:08:55;30.87;;;5.53;;
51578;SDS011;47998;53.242;6.386;2024-01-27T07:11:49;31.90;;;3.70;;
51578;SDS011;47998;53.242;6.386;2024-01-27T07:14:20;27.45;;;4.20;;
51578;SDS011;47998;53.242;6.386;2024-01-27T07:17:03;30.05;;;4.05;;
51578;SDS011;47998;53.242;6.386;2024-01-27T07:19:31;27.35;;;4.63;;
51578;SDS011;47998;53.242;6.386;2024-01-27T07:21:57;22.50;;;4.32;;
51578;SDS011;47998;53.242;6.386;2024-01-27T07:24:25;24.20;;;4.20;;
51578;SDS011;47998;53.242;6.386;2024-01-27T07:26:51;35.40;;;4.88;;
51578;SDS011;47998;53.242;6.386;2024-01-27T07:29:16;34.10;;;5.65;;
51578;SDS011;47998;53.242;6.386;2024-01-27T07:31:42;26.33;;;4.90;;
51578;SDS011;47998;53.242;6.386;2024-01-27T07:34:08;25.17;;;3.90;;
51578;SDS011;47998;53.242;6.386;2024-01-27T07:36:34;27.08;;;4.45;;
51578;SDS011;47998;53.242;6.386;2024-01-27T07:38:59;16.15;;;3.40;;
51578;SDS011;47998;53.242;6.386;2024-01-27T07:41:25;28.70;;;4.40;;
51578;SDS011;47998;53.242;6.386;2024-01-27T07:43:51;34.35;;;6.22;;
51578;SDS011;47998;53.242;6.386;2024-01-27T07:46:16;18.23;;;4.90;;
51578;SDS011;47998;53.242;6.386;2024-01-27T07:48:47;32.00;;;5.57;;
51578;SDS011;47998;53.242;6.386;2024-01-27T07:51:13;22.70;;;4.13;;
51578;SDS011;47998;53.242;6.386;2024-01-27T07:53:50;37.88;;;6.00;;
51578;SDS011;47998;53.242;6.386;2024-01-27T07:56:26;23.35;;;4.32;;
51578;SDS011;47998;53.242;6.386;2024-01-27T07:58:52;29.80;;;5.82;;
51578;SDS011;47998;53.242;6.386;2024-01-27T08:01:18;32.67;;;5.25;;
51578;SDS011;47998;53.242;6.386;2024-01-27T08:03:44;32.95;;;4.68;;
51578;SDS011;47998;53.242;6.386;2024-01-27T08:06:14;32.90;;;5.07;;
51578;SDS011;47998;53.242;6.386;2024-01-27T08:08:45;26.03;;;5.47;;
51578;SDS011;47998;53.242;6.386;2024-01-27T08:11:12;29.75;;;4.80;;
51578;SDS011;47998;53.242;6.386;2024-01-27T08:13:39;30.23;;;5.00;;
51578;SDS011;47998;53.242;6.386;2024-01-27T08:16:04;40.42;;;5.45;;
51578;SDS011;47998;53.242;6.386;2024-01-27T08:18:31;28.17;;;5.80;;
51578;SDS011;47998;53.242;6.386;2024-01-27T08:20:56;30.30;;;5.57;;
51578;SDS011;47998;53.242;6.386;2024-01-27T08:23:23;22.65;;;5.00;;
51578;SDS011;47998;53.242;6.386;2024-01-27T08:25:48;38.20;;;5.38;;
51578;SDS011;47998;53.242;6.386;2024-01-27T08:28:17;26.60;;;5.32;;
51578;SDS011;47998;53.242;6.386;2024-01-27T08:30:43;29.77;;;6.18;;
51578;SDS011;47998;53.242;6.386;2024-01-27T08:33:09;37.63;;;5.68;;
51578;SDS011;47998;53.242;6.386;2024-01-27T08:35:35;22.77;;;4.38;;
51578;SDS011;47998;53.242;6.386;2024-01-27T08:38:01;36.00;;;6.00;;
51578;SDS011;47998;53.242;6.386;2024-01-27T08:40:28;24.98;;;5.13;;
51578;SDS011;47998;53.242;6.386;2024-01-27T08:42:54;27.02;;;5.68;;
51578;SDS011;47998;53.242;6.386;2024-01-27T08:45:20;40.08;;;5.35;;
51578;SDS011;47998;53.242;6.386;2024-01-27T08:47:46;33.13;;;5.90;;
51578;SDS011;47998;53.242;6.386;2024-01-27T08:50:12;43.55;;;6.65;;
51578;SDS011;47998;53.242;6.386;2024-01-27T08:52:37;31.40;;;6.00;;
51578;SDS011;47998;53.242;6.386;2024-01-27T08:55:03;30.00;;;5.70;;
51578;SDS011;47998;53.242;6.386;2024-01-27T08:57:29;30.90;;;5.90;;
51578;SDS011;47998;53.242;6.386;2024-01-27T08:59:55;35.72;;;6.47;;
51578;SDS011;47998;53.242;6.386;2024-01-27T09:02:20;24.92;;;6.47;;
51578;SDS011;47998;53.242;6.386;2024-01-27T09:04:46;25.88;;;6.55;;
51578;SDS011;47998;53.242;6.386;2024-01-27T09:07:12;35.63;;;5.53;;
51578;SDS011;47998;53.242;6.386;2024-01-27T09:09:38;30.27;;;5.95;;
51578;SDS011;47998;53.242;6.386;2024-01-27T09:12:04;35.22;;;6.88;;
51578;SDS011;47998;53.242;6.386;2024-01-27T09:14:29;29.58;;;6.05;;
51578;SDS011;47998;53.242;6.386;2024-01-27T09:16:56;22.60;;;5.35;;
51578;SDS011;47998;53.242;6.386;2024-01-27T09:19:21;26.35;;;6.22;;
51578;SDS011;47998;53.242;6.386;2024-01-27T09:21:47;61.20;;;7.90;;
51578;SDS011;47998;53.242;6.386;2024-01-27T09:24:14;28.33;;;5.50;;
51578;SDS011;47998;53.242;6.386;2024-01-27T09:26:39;26.73;;;6.07;;
51578;SDS011;47998;53.242;6.386;2024-01-27T09:29:05;27.60;;;6.45;;
51578;SDS011;47998;53.242;6.386;2024-01-27T09:31:31;23.63;;;6.30;;
51578;SDS011;47998;53.242;6.386;2024-01-27T09:33:57;34.95;;;7.57;;
51578;SDS011;47998;53.242;6.386;2024-01-27T09:36:25;22.88;;;5.60;;
51578;SDS011;47998;53.242;6.386;2024-01-27T09:38:51;37.80;;;6.45;;
51578;SDS011;47998;53.242;6.386;2024-01-27T09:41:20;24.27;;;6.32;;
51578;SDS011;47998;53.242;6.386;2024-01-27T09:43:47;26.10;;;6.97;;
51578;SDS011;47998;53.242;6.386;2024-01-27T09:46:13;26.23;;;6.22;;
51578;SDS011;47998;53.242;6.386;2024-01-27T09:48:40;26.02;;;6.28;;
51578;SDS011;47998;53.242;6.386;2024-01-27T09:51:07;18.70;;;5.88;;
51578;SDS011;47998;53.242;6.386;2024-01-27T09:53:34;26.77;;;5.57;;
51578;SDS011;47998;53.242;6.386;2024-01-27T09:56:00;36.70;;;7.70;;
51578;SDS011;47998;53.242;6.386;2024-01-27T09:58:28;30.05;;;6.82;;
51578;SDS011;47998;53.242;6.386;2024-01-27T10:00:55;23.60;;;6.25;;
51578;SDS011;47998;53.242;6.386;2024-01-27T10:03:25;19.35;;;6.72;;
51578;SDS011;47998;53.242;6.386;2024-01-27T10:05:52;25.65;;;7.30;;
51578;SDS011;47998;53.242;6.386;2024-01-27T10:08:20;22.83;;;6.00;;
51578;SDS011;47998;53.242;6.386;2024-01-27T10:10:47;24.85;;;7.20;;
51578;SDS011;47998;53.242;6.386;2024-01-27T10:13:14;24.33;;;5.85;;
51578;SDS011;47998;53.242;6.386;2024-01-27T10:15:59;18.75;;;4.85;;
51578;SDS011;47998;53.242;6.386;2024-01-27T10:18:29;29.40;;;6.75;;
51578;SDS011;47998;53.242;6.386;2024-01-27T10:20:56;21.10;;;5.47;;
51578;SDS011;47998;53.242;6.386;2024-01-27T10:23:22;29.58;;;7.30;;
51578;SDS011;47998;53.242;6.386;2024-01-27T10:25:49;26.45;;;6.63;;
51578;SDS011;47998;53.242;6.386;2024-01-27T10:28:15;28.70;;;7.25;;
51578;SDS011;47998;53.242;6.386;2024-01-27T10:30:42;31.75;;;6.85;;
51578;SDS011;47998;53.242;6.386;2024-01-27T10:33:13;20.63;;;6.38;;
51578;SDS011;47998;53.242;6.386;2024-01-27T10:35:39;31.70;;;6.80;;
51578;SDS011;47998;53.242;6.386;2024-01-27T10:38:06;29.02;;;7.00;;
51578;SDS011;47998;53.242;6.386;2024-01-27T10:40:32;24.05;;;6.85;;
51578;SDS011;47998;53.242;6.386;2024-01-27T10:43:01;20.75;;;6.50;;
51578;SDS011;47998;53.242;6.386;2024-01-27T10:45:35;30.67;;;6.60;;
51578;SDS011;47998;53.242;6.386;2024-01-27T10:48:05;24.15;;;5.70;;
51578;SDS011;47998;53.242;6.386;2024-01-27T10:50:34;30.45;;;7.15;;
51578;SDS011;47998;53.242;6.386;2024-01-27T10:53:03;28.85;;;6.55;;
51578;SDS011;47998;53.242;6.386;2024-01-27T10:55:45;25.92;;;6.90;;
51578;SDS011;47998;53.242;6.386;2024-01-27T10:58:12;20.75;;;5.28;;
51578;SDS011;47998;53.242;6.386;2024-01-27T11:00:39;26.55;;;4.13;;
51578;SDS011;47998;53.242;6.386;2024-01-27T11:03:08;20.17;;;4.45;;
51578;SDS011;47998;53.242;6.386;2024-01-27T11:05:36;19.15;;;3.88;;
51578;SDS011;47998;53.242;6.386;2024-01-27T11:08:03;23.00;;;3.75;;
51578;SDS011;47998;53.242;6.386;2024-01-27T11:10:31;22.08;;;4.50;;
51578;SDS011;47998;53.242;6.386;2024-01-27T11:13:04;22.88;;;3.90;;
51578;SDS011;47998;53.242;6.386;2024-01-27T11:15:30;17.88;;;2.80;;
51578;SDS011;47998;53.242;6.386;2024-01-27T11:17:57;20.52;;;3.78;;
51578;SDS011;47998;53.242;6.386;2024-01-27T11:20:30;24.50;;;4.68;;
51578;SDS011;47998;53.242;6.386;2024-01-27T11:23:07;18.30;;;4.05;;
51578;SDS011;47998;53.242;6.386;2024-01-27T11:25:36;15.43;;;2.05;;
51578;SDS011;47998;53.242;6.386;2024-01-27T11:28:10;17.67;;;3.17;;
51578;SDS011;47998;53.242;6.386;2024-01-27T11:30:39;24.17;;;3.97;;
51578;SDS011;47998;53.242;6.386;2024-01-27T11:33:05;21.63;;;3.92;;
51578;SDS011;47998;53.242;6.386;2024-01-27T11:35:31;20.65;;;3.55;;
51578;SDS011;47998;53.242;6.386;2024-01-27T11:37:57;19.48;;;3.65;;
51578;SDS011;47998;53.242;6.386;2024-01-27T11:40:23;19.00;;;3.83;;
51578;SDS011;47998;53.242;6.386;2024-01-27T11:42:55;20.85;;;4.20;;
51578;SDS011;47998;53.242;6.386;2024-01-27T11:45:25;26.52;;;5.35;;
51578;SDS011;47998;53.242;6.386;2024-01-27T11:47:53;15.07;;;4.30;;
51578;SDS011;47998;53.242;6.386;2024-01-27T11:50:18;20.83;;;4.97;;
51578;SDS011;47998;53.242;6.386;2024-01-27T11:52:46;19.33;;;4.20;;
51578;SDS011;47998;53.242;6.386;2024-01-27T11:55:12;25.52;;;5.03;;
51578;SDS011;47998;53.242;6.386;2024-01-27T11:57:40;28.08;;;4.90;;
51578;SDS011;47998;53.242;6.386;2024-01-27T12:00:06;26.95;;;4.93;;
51578;SDS011;47998;53.242;6.386;2024-01-27T12:02:34;27.88;;;4.57;;
51578;SDS011;47998;53.242;6.386;2024-01-27T12:05:00;20.95;;;4.28;;
51578;SDS011;47998;53.242;6.386;2024-01-27T12:07:26;21.50;;;5.10;;
51578;SDS011;47998;53.242;6.386;2024-01-27T12:09:52;15.65;;;3.42;;
51578;SDS011;47998;53.242;6.386;2024-01-27T12:12:18;19.17;;;3.72;;
51578;SDS011;47998;53.242;6.386;2024-01-27T12:14:45;16.55;;;4.10;;
51578;SDS011;47998;53.242;6.386;2024-01-27T12:17:13;20.02;;;4.72;;
51578;SDS011;47998;53.242;6.386;2024-01-27T12:19:45;17.33;;;4.53;;
51578;SDS011;47998;53.242;6.386;2024-01-27T12:24:55;17.98;;;3.58;;
51578;SDS011;47998;53.242;6.386;2024-01-27T12:27:32;26.63;;;3.58;;
51578;SDS011;47998;53.242;6.386;2024-01-27T12:29:59;18.00;;;3.75;;
51578;SDS011;47998;53.242;6.386;2024-01-27T12:32:26;15.95;;;3.67;;
51578;SDS011;47998;53.242;6.386;2024-01-27T12:34:52;21.25;;;3.72;;
51578;SDS011;47998;53.242;6.386;2024-01-27T12:37:17;19.65;;;4.07;;
51578;SDS011;47998;53.242;6.386;2024-01-27T12:39:46;26.60;;;5.13;;
51578;SDS011;47998;53.242;6.386;2024-01-27T12:42:12;17.15;;;3.55;;
51578;SDS011;47998;53.242;6.386;2024-01-27T12:44:41;26.90;;;4.28;;
51578;SDS011;47998;53.242;6.386;2024-01-27T12:47:07;23.58;;;3.95;;
51578;SDS011;47998;53.242;6.386;2024-01-27T12:49:33;19.65;;;5.10;;
51578;SDS011;47998;53.242;6.386;2024-01-27T12:51:59;19.10;;;3.50;;
51578;SDS011;47998;53.242;6.386;2024-01-27T12:54:25;19.98;;;3.75;;
51578;SDS011;47998;53.242;6.386;2024-01-27T12:56:51;20.13;;;4.03;;
51578;SDS011;47998;53.242;6.386;2024-01-27T12:59:17;26.48;;;4.40;;
51578;SDS011;47998;53.242;6.386;2024-01-27T13:01:43;18.55;;;3.67;;
51578;SDS011;47998;53.242;6.386;2024-01-27T13:04:09;23.98;;;4.15;;
51578;SDS011;47998;53.242;6.386;2024-01-27T13:06:35;16.75;;;4.00;;
51578;SDS011;47998;53.242;6.386;2024-01-27T13:09:01;21.95;;;4.10;;
51578;SDS011;47998;53.242;6.386;2024-01-27T13:11:27;18.45;;;3.75;;
51578;SDS011;47998;53.242;6.386;2024-01-27T13:13:52;22.50;;;3.80;;
51578;SDS011;47998;53.242;6.386;2024-01-27T13:16:18;16.17;;;3.58;;
51578;SDS011;47998;53.242;6.386;2024-01-27T13:18:44;25.23;;;3.78;;
51578;SDS011;47998;53.242;6.386;2024-01-27T13:21:11;20.10;;;4.32;;
51578;SDS011;47998;53.242;6.386;2024-01-27T13:23:37;18.08;;;3.25;;
51578;SDS011;47998;53.242;6.386;2024-01-27T13:26:03;20.98;;;4.63;;
51578;SDS011;47998;53.242;6.386;2024-01-27T13:28:29;20.75;;;4.30;;
51578;SDS011;47998;53.242;6.386;2024-01-27T13:30:55;17.67;;;4.20;;
51578;SDS011;47998;53.242;6.386;2024-01-27T13:33:20;22.38;;;3.97;;
51578;SDS011;47998;53.242;6.386;2024-01-27T13:35:46;19.48;;;3.25;;
51578;SDS011;47998;53.242;6.386;2024-01-27T13:38:15;16.42;;;3.22;;
51578;SDS011;47998;53.242;6.386;2024-01-27T13:40:48;20.50;;;4.40;;
51578;SDS011;47998;53.242;6.386;2024-01-27T13:43:16;21.38;;;3.70;;
51578;SDS011;47998;53.242;6.386;2024-01-27T13:45:42;20.08;;;4.88;;
51578;SDS011;47998;53.242;6.386;2024-01-27T13:48:08;21.02;;;3.38;;
51578;SDS011;47998;53.242;6.386;2024-01-27T13:50:35;20.55;;;3.85;;
51578;SDS011;47998;53.242;6.386;2024-01-27T13:53:00;17.58;;;3.20;;
51578;SDS011;47998;53.242;6.386;2024-01-27T13:55:26;16.00;;;3.10;;
51578;SDS011;47998;53.242;6.386;2024-01-27T13:57:52;14.52;;;3.17;;
51578;SDS011;47998;53.242;6.386;2024-01-27T14:00:18;20.63;;;3.92;;
51578;SDS011;47998;53.242;6.386;2024-01-27T14:02:44;20.88;;;4.05;;
51578;SDS011;47998;53.242;6.386;2024-01-27T14:05:10;20.13;;;3.75;;
51578;SDS011;47998;53.242;6.386;2024-01-27T14:07:35;22.83;;;5.10;;
51578;SDS011;47998;53.242;6.386;2024-01-27T14:10:01;17.83;;;3.33;;
51578;SDS011;47998;53.242;6.386;2024-01-27T14:12:27;14.05;;;3.25;;
51578;SDS011;47998;53.242;6.386;2024-01-27T14:14:53;27.17;;;4.72;;
51578;SDS011;47998;53.242;6.386;2024-01-27T14:17:26;25.15;;;3.90;;
51578;SDS011;47998;53.242;6.386;2024-01-27T14:19:52;15.93;;;3.17;;
51578;SDS011;47998;53.242;6.386;2024-01-27T14:22:18;13.27;;;2.88;;
51578;SDS011;47998;53.242;6.386;2024-01-27T14:24:43;21.60;;;4.25;;
51578;SDS011;47998;53.242;6.386;2024-01-27T14:27:09;21.35;;;4.15;;
51578;SDS011;47998;53.242;6.386;2024-01-27T14:29:35;19.00;;;3.72;;
51578;SDS011;47998;53.242;6.386;2024-01-27T14:32:02;19.75;;;3.55;;